createdAt,value
2019-05-19T00:00:52.081Z,9.40
2019-05-19T00:01:52.071Z,9.80
2019-05-19T00:02:52.076Z,9.30
2019-05-19T00:03:52.049Z,9.10
2019-05-19T00:04:52.058Z,9.50
2019-05-19T00:05:52.027Z,9.30
2019-05-19T00:06:52.017Z,9.40
2019-05-19T00:07:52.008Z,9.80
2019-05-19T00:08:51.995Z,9.40
2019-05-19T00:09:51.983Z,9.90
2019-05-19T00:10:51.990Z,10.30
2019-05-19T00:11:51.956Z,10.20
2019-05-19T00:12:51.953Z,9.80
2019-05-19T00:13:51.933Z,10.10
2019-05-19T00:14:51.925Z,9.50
2019-05-19T00:15:51.928Z,9.70
2019-05-19T00:16:51.926Z,9.70
2019-05-19T00:17:51.896Z,9.60
2019-05-19T00:18:51.882Z,10.10
2019-05-19T00:19:51.866Z,10.00
2019-05-19T00:20:51.859Z,9.50
2019-05-19T00:21:51.851Z,9.10
2019-05-19T00:22:51.855Z,9.90
2019-05-19T00:23:51.823Z,9.30
2019-05-19T00:24:51.809Z,10.00
2019-05-19T00:25:51.799Z,9.30
2019-05-19T00:26:51.796Z,9.80
2019-05-19T00:27:51.778Z,10.20
2019-05-19T00:28:51.779Z,10.50
2019-05-19T00:29:51.756Z,10.40
2019-05-19T00:30:51.743Z,10.70
2019-05-19T00:31:51.731Z,10.30
2019-05-19T00:32:51.720Z,10.80
2019-05-19T00:33:51.707Z,10.70
2019-05-19T00:34:51.712Z,10.50
2019-05-19T00:35:51.690Z,10.30
2019-05-19T00:36:51.671Z,9.70
2019-05-19T00:37:51.673Z,10.60
2019-05-19T00:38:51.652Z,10.10
2019-05-19T00:39:51.638Z,9.90
2019-05-19T00:40:51.654Z,10.50
2019-05-19T00:41:51.625Z,11.70
2019-05-19T00:42:51.606Z,11.60
2019-05-19T00:43:51.595Z,11.70
2019-05-19T00:44:51.582Z,12.30
2019-05-19T00:45:51.569Z,11.50
2019-05-19T00:46:51.580Z,11.60
2019-05-19T00:47:51.551Z,11.70
2019-05-19T00:48:51.540Z,12.00
2019-05-19T00:49:51.540Z,11.20
2019-05-19T00:50:51.516Z,10.90
2019-05-19T00:51:55.046Z,11.50
2019-05-19T00:52:51.514Z,10.30
2019-05-19T00:53:51.483Z,11.20
2019-05-19T00:54:51.475Z,10.80
2019-05-19T00:55:51.465Z,11.20
2019-05-19T00:56:51.456Z,11.10
2019-05-19T00:57:51.437Z,11.10
2019-05-19T00:58:51.445Z,11.60
2019-05-19T00:59:51.417Z,11.60
2019-05-19T01:00:51.404Z,11.60
2019-05-19T01:01:51.403Z,11.40
2019-05-19T01:02:51.386Z,12.10
2019-05-19T01:03:51.377Z,11.90
2019-05-19T01:04:51.378Z,11.70
2019-05-19T01:05:51.347Z,13.00
2019-05-19T01:06:51.356Z,13.60
2019-05-19T01:07:51.335Z,13.30
2019-05-19T01:08:51.315Z,12.90
2019-05-19T01:09:51.305Z,13.10
2019-05-19T01:10:51.309Z,14.60
2019-05-19T01:11:51.280Z,15.20
2019-05-19T01:12:51.272Z,14.70
2019-05-19T01:13:51.281Z,14.80
2019-05-19T01:14:51.249Z,13.90
2019-05-19T01:15:51.254Z,13.40
2019-05-19T01:16:51.244Z,13.70
2019-05-19T01:17:51.217Z,13.50
2019-05-19T01:18:51.211Z,14.00
2019-05-19T01:19:55.960Z,14.30
2019-05-19T01:20:52.179Z,14.20
2019-05-19T01:21:51.172Z,15.10
2019-05-19T01:22:51.192Z,13.90
2019-05-19T01:23:51.146Z,14.20
2019-05-19T01:24:51.139Z,15.10
2019-05-19T01:25:51.131Z,16.00
2019-05-19T01:26:51.114Z,20.40
2019-05-19T01:27:51.107Z,26.90
2019-05-19T01:28:51.113Z,34.20
2019-05-19T01:29:51.079Z,39.10
2019-05-19T01:30:51.070Z,38.80
2019-05-19T01:31:51.059Z,39.60
2019-05-19T01:32:51.047Z,37.40
2019-05-19T01:33:51.035Z,30.40
2019-05-19T01:34:51.040Z,26.70
2019-05-19T01:35:51.034Z,21.00
2019-05-19T01:36:51.014Z,20.80
2019-05-19T01:37:50.987Z,19.90
2019-05-19T01:38:50.975Z,18.10
2019-05-19T01:39:50.969Z,17.60
2019-05-19T01:40:50.968Z,16.60
2019-05-19T01:41:50.947Z,15.80
2019-05-19T01:42:50.933Z,14.90
2019-05-19T01:43:50.920Z,15.50
2019-05-19T01:44:50.909Z,15.20
2019-05-19T01:45:50.902Z,15.70
2019-05-19T01:46:50.911Z,14.90
2019-05-19T01:47:50.894Z,15.00
2019-05-19T01:48:50.875Z,16.40
2019-05-19T01:49:50.902Z,14.60
2019-05-19T01:50:50.843Z,16.20
2019-05-19T01:51:50.832Z,15.10
2019-05-19T01:52:50.835Z,16.40
2019-05-19T01:53:50.811Z,16.60
2019-05-19T01:54:50.800Z,16.70
2019-05-19T01:55:50.794Z,15.40
2019-05-19T01:56:50.782Z,15.90
2019-05-19T01:57:50.771Z,19.00
2019-05-19T01:58:50.778Z,16.20
2019-05-19T01:59:50.754Z,16.10
2019-05-19T02:00:50.731Z,16.00
2019-05-19T02:01:50.746Z,17.00
2019-05-19T02:02:50.716Z,16.70
2019-05-19T02:03:50.695Z,15.70
2019-05-19T02:04:50.703Z,16.50
2019-05-19T02:05:50.672Z,15.40
2019-05-19T02:06:50.667Z,15.60
2019-05-19T02:07:50.650Z,16.00
2019-05-19T02:08:50.640Z,16.30
2019-05-19T02:09:50.631Z,18.30
2019-05-19T02:10:50.635Z,18.70
2019-05-19T02:11:50.608Z,20.70
2019-05-19T02:12:50.606Z,24.80
2019-05-19T02:13:50.585Z,26.90
2019-05-19T02:14:50.573Z,25.60
2019-05-19T02:15:50.559Z,24.80
2019-05-19T02:16:50.563Z,28.50
2019-05-19T02:17:50.545Z,32.40
2019-05-19T02:18:50.526Z,34.30
2019-05-19T02:19:50.519Z,35.60
2019-05-19T02:20:50.501Z,37.00
2019-05-19T02:21:50.489Z,39.30
2019-05-19T02:22:50.501Z,36.60
2019-05-19T02:23:50.473Z,38.80
2019-05-19T02:24:50.458Z,39.50
2019-05-19T02:25:50.445Z,36.30
2019-05-19T02:26:50.433Z,41.40
2019-05-19T02:27:50.428Z,44.30
2019-05-19T02:28:50.428Z,47.00
2019-05-19T02:29:50.399Z,45.90
2019-05-19T02:30:50.388Z,49.10
2019-05-19T02:31:50.378Z,55.20
2019-05-19T02:32:50.366Z,49.20
2019-05-19T02:33:50.357Z,55.50
2019-05-19T02:34:50.386Z,57.80
2019-05-19T02:35:50.338Z,62.20
2019-05-19T02:36:50.320Z,58.90
2019-05-19T02:37:50.327Z,54.20
2019-05-19T02:38:50.300Z,61.40
2019-05-19T02:39:50.292Z,56.90
2019-05-19T02:40:50.300Z,66.10
2019-05-19T02:41:50.265Z,63.70
2019-05-19T02:42:50.258Z,60.30
2019-05-19T02:43:50.242Z,58.80
2019-05-19T02:44:50.229Z,61.90
2019-05-19T02:45:50.224Z,58.50
2019-05-19T02:46:50.326Z,57.40
2019-05-19T02:47:50.199Z,64.40
2019-05-19T02:48:50.184Z,71.60
2019-05-19T02:49:50.171Z,75.80
2019-05-19T02:50:52.655Z,74.70
2019-05-19T02:51:50.151Z,75.70
2019-05-19T02:52:50.156Z,73.30
2019-05-19T02:53:50.130Z,69.10
2019-05-19T02:54:50.119Z,72.40
2019-05-19T02:55:50.105Z,79.80
2019-05-19T02:56:50.095Z,77.60
2019-05-19T02:57:50.081Z,71.40
2019-05-19T02:58:50.082Z,67.20
2019-05-19T02:59:50.072Z,64.30
2019-05-19T03:00:50.047Z,80.50
2019-05-19T03:01:50.037Z,78.30
2019-05-19T03:02:50.021Z,83.00
2019-05-19T03:03:50.022Z,80.00
2019-05-19T03:04:50.031Z,88.10
2019-05-19T03:05:49.994Z,82.20
2019-05-19T03:06:49.980Z,86.70
2019-05-19T03:07:49.972Z,83.00
2019-05-19T03:08:49.958Z,82.10
2019-05-19T03:09:49.957Z,75.10
2019-05-19T03:10:49.951Z,65.90
2019-05-19T03:11:49.921Z,73.90
2019-05-19T03:12:49.907Z,71.50
2019-05-19T03:13:49.897Z,69.50
2019-05-19T03:14:49.888Z,71.50
2019-05-19T03:15:49.873Z,68.30
2019-05-19T03:16:49.891Z,68.30
2019-05-19T03:17:49.855Z,53.90
2019-05-19T03:18:49.838Z,38.40
2019-05-19T03:19:49.832Z,38.80
2019-05-19T03:20:49.814Z,36.10
2019-05-19T03:21:49.807Z,38.40
2019-05-19T03:22:49.819Z,33.20
2019-05-19T03:23:49.784Z,32.70
2019-05-19T03:24:49.775Z,35.80
2019-05-19T03:25:49.758Z,34.60
2019-05-19T03:26:49.769Z,31.80
2019-05-19T03:27:49.741Z,31.00
2019-05-19T03:28:49.742Z,32.00
2019-05-19T03:29:49.712Z,32.30
2019-05-19T03:30:49.708Z,30.90
2019-05-19T03:31:49.706Z,31.20
2019-05-19T03:32:49.683Z,31.60
2019-05-19T03:33:49.694Z,30.30
2019-05-19T03:34:49.675Z,28.10
2019-05-19T03:35:49.653Z,27.00
2019-05-19T03:36:49.641Z,28.80
2019-05-19T03:37:49.631Z,28.00
2019-05-19T03:38:49.614Z,30.30
2019-05-19T03:39:49.601Z,28.40
2019-05-19T03:40:49.610Z,28.20
2019-05-19T03:41:49.580Z,28.80
2019-05-19T03:42:49.565Z,28.10
2019-05-19T03:43:49.558Z,30.90
2019-05-19T03:44:49.546Z,32.30
2019-05-19T03:45:49.529Z,32.80
2019-05-19T03:46:49.544Z,38.20
2019-05-19T03:47:49.507Z,35.00
2019-05-19T03:48:49.495Z,31.70
2019-05-19T03:49:49.492Z,33.80
2019-05-19T03:50:49.474Z,35.20
2019-05-19T03:51:49.459Z,35.80
2019-05-19T03:52:49.474Z,38.30
2019-05-19T03:53:49.439Z,36.50
2019-05-19T03:54:49.434Z,36.70
2019-05-19T03:55:49.424Z,39.60
2019-05-19T03:56:49.406Z,39.10
2019-05-19T03:57:49.401Z,42.20
2019-05-19T03:58:49.399Z,49.30
2019-05-19T03:59:49.372Z,42.30
2019-05-19T04:00:49.362Z,40.00
2019-05-19T04:01:49.352Z,42.60
2019-05-19T04:02:49.338Z,46.30
2019-05-19T04:03:49.328Z,41.30
2019-05-19T04:04:49.328Z,47.50
2019-05-19T04:05:49.305Z,64.80
2019-05-19T04:06:49.289Z,66.00
2019-05-19T04:07:49.283Z,80.40
2019-05-19T04:08:49.273Z,73.70
2019-05-19T04:09:49.256Z,82.00
2019-05-19T04:10:49.271Z,88.80
2019-05-19T04:11:49.237Z,74.30
2019-05-19T04:12:49.222Z,57.80
2019-05-19T04:13:49.207Z,49.00
2019-05-19T04:14:49.208Z,36.10
2019-05-19T04:15:49.185Z,31.80
2019-05-19T04:16:49.192Z,32.10
2019-05-19T04:17:49.166Z,35.50
2019-05-19T04:18:49.151Z,38.80
2019-05-19T04:19:49.147Z,41.00
2019-05-19T04:20:49.133Z,54.50
2019-05-19T04:21:49.759Z,75.70
2019-05-19T04:22:49.135Z,82.40
2019-05-19T04:23:49.109Z,54.70
2019-05-19T04:24:49.101Z,74.90
2019-05-19T04:25:49.079Z,148.50
2019-05-19T04:26:49.062Z,168.10
2019-05-19T04:27:49.052Z,161.10
2019-05-19T04:28:49.059Z,157.90
2019-05-19T04:29:49.033Z,144.60
2019-05-19T04:30:49.025Z,171.90
2019-05-19T04:31:49.005Z,151.30
2019-05-19T04:32:48.992Z,118.70
2019-05-19T04:33:48.985Z,109.20
2019-05-19T04:34:48.987Z,117.20
2019-05-19T04:35:48.965Z,106.30
2019-05-19T04:36:48.946Z,112.40
2019-05-19T04:37:48.939Z,114.40
2019-05-19T04:38:48.924Z,121.10
2019-05-19T04:39:48.920Z,109.30
2019-05-19T04:40:48.924Z,124.50
2019-05-19T04:41:48.889Z,130.30
2019-05-19T04:42:48.885Z,113.60
2019-05-19T04:43:48.872Z,163.30
2019-05-19T04:44:48.858Z,148.20
2019-05-19T04:45:48.854Z,89.30
2019-05-19T04:46:48.856Z,82.10
2019-05-19T04:47:48.827Z,51.20
2019-05-19T04:48:48.817Z,47.50
2019-05-19T04:49:48.800Z,40.10
2019-05-19T04:50:48.791Z,40.80
2019-05-19T04:52:05.407Z,42.80
2019-05-19T04:52:49.797Z,78.10
2019-05-19T04:53:48.759Z,33.40
2019-05-19T04:54:48.751Z,30.60
2019-05-19T04:55:48.734Z,27.00
2019-05-19T04:56:48.723Z,28.30
2019-05-19T04:57:48.718Z,27.10
2019-05-19T04:58:48.715Z,27.60
2019-05-19T04:59:48.691Z,27.50
2019-05-19T05:00:48.685Z,27.90
2019-05-19T05:01:48.666Z,34.80
2019-05-19T05:02:48.657Z,34.10
2019-05-19T05:03:48.648Z,33.20
2019-05-19T05:04:48.652Z,35.00
2019-05-19T05:05:48.628Z,35.10
2019-05-19T05:06:48.612Z,43.20
2019-05-19T05:07:48.601Z,43.60
2019-05-19T05:08:48.591Z,68.30
2019-05-19T05:09:48.581Z,91.70
2019-05-19T05:10:48.577Z,103.40
2019-05-19T05:11:48.554Z,65.50
2019-05-19T05:12:48.548Z,86.30
2019-05-19T05:13:48.532Z,98.80
2019-05-19T05:14:48.525Z,73.40
2019-05-19T05:15:48.509Z,87.50
2019-05-19T05:16:48.517Z,61.70
2019-05-19T05:17:48.499Z,115.40
2019-05-19T05:18:48.481Z,152.20
2019-05-19T05:19:48.463Z,148.20
2019-05-19T05:20:48.453Z,111.30
2019-05-19T05:21:48.443Z,121.10
2019-05-19T05:22:48.461Z,78.20
2019-05-19T05:23:48.421Z,70.50
2019-05-19T05:24:48.409Z,102.00
2019-05-19T05:25:48.409Z,71.90
2019-05-19T05:26:48.385Z,90.60
2019-05-19T05:27:48.394Z,157.10
2019-05-19T05:28:48.377Z,81.60
2019-05-19T05:29:48.357Z,107.90
2019-05-19T05:30:48.343Z,76.60
2019-05-19T05:31:48.330Z,87.30
2019-05-19T05:32:48.318Z,78.50
2019-05-19T05:33:48.303Z,53.80
2019-05-19T05:34:48.306Z,57.60
2019-05-19T05:35:48.283Z,71.70
2019-05-19T05:36:48.270Z,62.60
2019-05-19T05:37:48.265Z,84.70
2019-05-19T05:38:48.252Z,67.10
2019-05-19T05:39:48.234Z,86.10
2019-05-19T05:40:48.238Z,93.80
2019-05-19T05:41:48.213Z,103.90
2019-05-19T05:42:48.201Z,119.10
2019-05-19T05:43:48.187Z,103.30
2019-05-19T05:44:48.182Z,113.60
2019-05-19T05:45:48.168Z,110.90
2019-05-19T05:46:48.171Z,100.40
2019-05-19T05:47:48.151Z,86.60
2019-05-19T05:48:48.131Z,93.50
2019-05-19T05:49:50.224Z,86.30
2019-05-19T05:50:48.109Z,83.50
2019-05-19T05:51:48.092Z,83.70
2019-05-19T05:52:48.109Z,82.40
2019-05-19T05:53:48.070Z,84.70
2019-05-19T05:54:48.055Z,73.00
2019-05-19T05:55:48.061Z,65.60
2019-05-19T05:56:48.031Z,77.00
2019-05-19T05:57:48.023Z,63.30
2019-05-19T05:58:48.025Z,59.80
2019-05-19T05:59:47.997Z,63.10
2019-05-19T06:00:47.990Z,65.40
2019-05-19T06:01:47.980Z,90.90
2019-05-19T06:02:47.964Z,70.30
2019-05-19T06:03:47.953Z,69.50
2019-05-19T06:04:47.959Z,72.10
2019-05-19T06:05:47.925Z,67.40
2019-05-19T06:06:47.920Z,69.90
2019-05-19T06:07:47.909Z,70.20
2019-05-19T06:08:47.894Z,67.00
2019-05-19T06:09:47.880Z,69.00
2019-05-19T06:10:47.889Z,72.70
2019-05-19T06:11:47.855Z,92.80
2019-05-19T06:12:47.855Z,77.30
2019-05-19T06:13:49.675Z,71.70
2019-05-19T06:14:47.817Z,76.00
2019-05-19T06:15:47.809Z,85.90
2019-05-19T06:16:47.812Z,81.20
2019-05-19T06:17:47.790Z,82.90
2019-05-19T06:18:47.776Z,72.80
2019-05-19T06:19:47.766Z,76.30
2019-05-19T06:20:47.751Z,70.00
2019-05-19T06:21:47.748Z,69.80
2019-05-19T06:22:56.639Z,60.60
2019-05-19T06:23:48.716Z,55.70
2019-05-19T06:24:47.708Z,57.30
2019-05-19T06:25:47.721Z,63.90
2019-05-19T06:26:47.685Z,55.70
2019-05-19T06:27:47.670Z,53.40
2019-05-19T06:28:47.681Z,54.90
2019-05-19T06:29:47.647Z,56.80
2019-05-19T06:30:47.642Z,60.10
2019-05-19T06:31:47.646Z,53.90
2019-05-19T06:32:47.614Z,54.70
2019-05-19T06:33:47.606Z,52.80
2019-05-19T06:34:47.613Z,52.50
2019-05-19T06:35:47.585Z,52.90
2019-05-19T06:36:47.575Z,57.10
2019-05-19T06:37:47.562Z,51.80
2019-05-19T06:38:47.558Z,55.20
2019-05-19T06:39:47.540Z,50.40
2019-05-19T06:40:47.546Z,50.50
2019-05-19T06:41:47.514Z,51.20
2019-05-19T06:42:47.502Z,49.70
2019-05-19T06:43:47.493Z,52.40
2019-05-19T06:44:47.481Z,51.10
2019-05-19T06:45:47.474Z,50.90
2019-05-19T06:46:47.527Z,46.00
2019-05-19T06:47:47.453Z,47.60
2019-05-19T06:48:47.433Z,49.20
2019-05-19T06:49:47.422Z,51.20
2019-05-19T06:50:47.415Z,53.50
2019-05-19T06:51:47.399Z,47.70
2019-05-19T06:52:47.406Z,45.30
2019-05-19T06:53:47.379Z,46.40
2019-05-19T06:54:47.380Z,45.50
2019-05-19T06:55:47.352Z,44.60
2019-05-19T06:56:47.355Z,46.40
2019-05-19T06:57:47.332Z,46.90
2019-05-19T06:58:47.343Z,46.70
2019-05-19T06:59:47.312Z,45.70
2019-05-19T07:00:47.301Z,45.10
2019-05-19T07:01:47.288Z,45.90
2019-05-19T07:02:47.281Z,43.50
2019-05-19T07:03:47.271Z,43.70
2019-05-19T07:04:47.286Z,42.30
2019-05-19T07:05:47.256Z,42.20
2019-05-19T07:06:47.266Z,40.30
2019-05-19T07:07:47.221Z,40.80
2019-05-19T07:08:47.227Z,39.50
2019-05-19T07:09:57.764Z,38.30
2019-05-19T07:10:48.205Z,39.30
2019-05-19T07:11:47.183Z,37.40
2019-05-19T07:12:47.165Z,36.60
2019-05-19T07:13:47.155Z,37.60
2019-05-19T07:14:47.149Z,37.30
2019-05-19T07:15:47.145Z,36.50
2019-05-19T07:16:54.787Z,38.30
2019-05-19T07:17:47.126Z,36.40
2019-05-19T07:18:47.121Z,37.20
2019-05-19T07:19:47.087Z,33.70
2019-05-19T07:20:47.078Z,34.60
2019-05-19T07:21:47.077Z,35.20
2019-05-19T07:22:47.069Z,31.70
2019-05-19T07:23:47.042Z,32.00
2019-05-19T07:24:47.038Z,32.40
2019-05-19T07:25:47.018Z,33.50
2019-05-19T07:26:47.008Z,32.50
2019-05-19T07:27:46.994Z,33.20
2019-05-19T07:28:47.003Z,32.10
2019-05-19T07:29:46.978Z,30.30
2019-05-19T07:30:46.967Z,31.90
2019-05-19T07:31:46.949Z,30.90
2019-05-19T07:32:46.940Z,31.20
2019-05-19T07:33:46.957Z,30.50
2019-05-19T07:34:46.941Z,30.40
2019-05-19T07:35:46.907Z,30.70
2019-05-19T07:36:46.898Z,30.70
2019-05-19T07:37:46.880Z,29.60
2019-05-19T07:38:46.870Z,31.70
2019-05-19T07:39:46.862Z,29.70
2019-05-19T07:40:46.869Z,29.70
2019-05-19T07:41:46.836Z,29.70
2019-05-19T07:42:46.827Z,29.80
2019-05-19T07:43:46.823Z,28.40
2019-05-19T07:44:46.804Z,28.10
2019-05-19T07:45:46.799Z,28.40
2019-05-19T07:46:46.811Z,27.80
2019-05-19T07:47:46.774Z,28.80
2019-05-19T07:48:46.763Z,27.60
2019-05-19T07:49:46.798Z,29.70
2019-05-19T07:50:46.742Z,28.90
2019-05-19T07:51:46.730Z,28.70
2019-05-19T07:52:46.747Z,26.90
2019-05-19T07:53:46.710Z,28.90
2019-05-19T07:54:46.701Z,29.10
2019-05-19T07:55:46.686Z,29.50
2019-05-19T07:56:46.677Z,28.60
2019-05-19T07:57:46.662Z,28.60
2019-05-19T07:58:46.667Z,28.70
2019-05-19T07:59:46.649Z,29.40
2019-05-19T08:00:46.633Z,29.00
2019-05-19T08:01:46.630Z,28.20
2019-05-19T08:02:46.627Z,28.50
2019-05-19T08:03:46.601Z,30.00
2019-05-19T08:04:46.643Z,31.20
2019-05-19T08:05:46.574Z,30.70
2019-05-19T08:06:46.566Z,31.30
2019-05-19T08:07:46.574Z,29.90
2019-05-19T08:08:46.548Z,29.80
2019-05-19T08:09:46.535Z,30.40
2019-05-19T08:10:46.532Z,30.70
2019-05-19T08:11:46.507Z,31.10
2019-05-19T08:12:46.499Z,31.10
2019-05-19T08:13:46.491Z,30.80
2019-05-19T08:14:46.472Z,29.80
2019-05-19T08:15:46.465Z,30.00
2019-05-19T08:16:46.494Z,27.60
2019-05-19T08:17:46.446Z,27.70
2019-05-19T08:18:46.439Z,25.20
2019-05-19T08:19:46.422Z,24.00
2019-05-19T08:20:46.409Z,23.30
2019-05-19T08:21:46.430Z,23.80
2019-05-19T08:22:46.402Z,22.80
2019-05-19T08:23:59.167Z,22.90
2019-05-19T08:24:47.363Z,21.30
2019-05-19T08:25:46.353Z,23.10
2019-05-19T08:26:46.347Z,22.90
2019-05-19T08:27:46.344Z,22.60
2019-05-19T08:28:46.341Z,21.40
2019-05-19T08:29:46.318Z,20.80
2019-05-19T08:30:46.303Z,20.50
2019-05-19T08:31:46.297Z,21.70
2019-05-19T08:32:46.278Z,23.20
2019-05-19T08:33:46.277Z,21.90
2019-05-19T08:34:46.272Z,23.00
2019-05-19T08:35:46.248Z,22.00
2019-05-19T08:36:46.233Z,21.60
2019-05-19T08:37:46.222Z,20.00
2019-05-19T08:38:46.214Z,21.20
2019-05-19T08:39:46.217Z,21.40
2019-05-19T08:40:46.211Z,21.30
2019-05-19T08:41:46.189Z,20.70
2019-05-19T08:42:46.167Z,21.70
2019-05-19T08:43:46.161Z,22.60
2019-05-19T08:44:46.149Z,22.10
2019-05-19T08:45:46.142Z,23.60
2019-05-19T08:46:46.140Z,21.80
2019-05-19T08:47:46.117Z,23.50
2019-05-19T08:48:46.105Z,23.50
2019-05-19T08:49:46.095Z,22.60
2019-05-19T08:50:46.093Z,22.20
2019-05-19T08:51:46.080Z,20.30
2019-05-19T08:52:46.084Z,21.50
2019-05-19T08:53:46.049Z,22.00
2019-05-19T08:54:46.043Z,22.90
2019-05-19T08:55:46.037Z,23.10
2019-05-19T08:56:46.019Z,23.00
2019-05-19T08:57:46.009Z,22.80
2019-05-19T08:58:46.022Z,22.20
2019-05-19T08:59:45.987Z,22.50
2019-05-19T09:00:45.975Z,22.50
2019-05-19T09:01:45.970Z,23.00
2019-05-19T09:02:45.955Z,23.00
2019-05-19T09:03:45.953Z,22.70
2019-05-19T09:04:45.953Z,21.70
2019-05-19T09:05:47.910Z,22.90
2019-05-19T09:06:45.924Z,21.80
2019-05-19T09:07:45.902Z,21.50
2019-05-19T09:08:45.905Z,20.50
2019-05-19T09:09:45.886Z,21.40
2019-05-19T09:10:45.885Z,21.30
2019-05-19T09:11:47.939Z,22.90
2019-05-19T09:12:45.847Z,21.70
2019-05-19T09:13:45.840Z,22.60
2019-05-19T09:14:45.838Z,23.40
2019-05-19T09:15:45.814Z,21.50
2019-05-19T09:16:45.831Z,19.90
2019-05-19T09:17:45.798Z,20.20
2019-05-19T09:18:45.785Z,20.20
2019-05-19T09:19:45.775Z,20.10
2019-05-19T09:20:45.763Z,20.60
2019-05-19T09:21:45.757Z,20.20
2019-05-19T09:22:45.764Z,20.00
2019-05-19T09:23:45.732Z,19.70
2019-05-19T09:24:45.722Z,20.30
2019-05-19T09:25:45.711Z,22.40
2019-05-19T09:26:45.702Z,22.60
2019-05-19T09:27:45.690Z,22.00
2019-05-19T09:28:45.696Z,22.40
2019-05-19T09:29:45.674Z,23.00
2019-05-19T09:30:45.664Z,22.30
2019-05-19T09:31:45.649Z,22.30
2019-05-19T09:32:45.640Z,20.50
2019-05-19T09:33:45.629Z,21.50
2019-05-19T09:34:45.652Z,20.70
2019-05-19T09:35:45.627Z,21.60
2019-05-19T09:36:45.602Z,20.90
2019-05-19T09:37:45.589Z,21.70
2019-05-19T09:38:45.575Z,19.90
2019-05-19T09:39:45.583Z,19.90
2019-05-19T09:40:45.576Z,20.50
2019-05-19T09:41:45.548Z,21.10
2019-05-19T09:42:45.597Z,19.70
2019-05-19T09:43:45.522Z,20.10
2019-05-19T09:44:45.524Z,20.60
2019-05-19T09:45:45.507Z,20.20
2019-05-19T09:46:45.512Z,19.20
2019-05-19T09:47:45.482Z,19.20
2019-05-19T09:48:45.477Z,19.00
2019-05-19T09:49:45.463Z,18.90
2019-05-19T09:50:45.459Z,19.10
2019-05-19T09:51:45.446Z,19.60
2019-05-19T09:52:45.468Z,18.70
2019-05-19T09:53:45.503Z,18.80
2019-05-19T09:54:46.022Z,19.40
2019-05-19T09:55:45.405Z,18.90
2019-05-19T09:56:45.396Z,17.60
2019-05-19T09:57:45.384Z,18.20
2019-05-19T09:58:45.394Z,18.50
2019-05-19T09:59:45.369Z,19.60
2019-05-19T10:00:45.351Z,18.30
2019-05-19T10:01:45.345Z,17.10
2019-05-19T10:02:45.340Z,16.40
2019-05-19T10:03:45.328Z,16.80
2019-05-19T10:04:45.331Z,16.10
2019-05-19T10:05:45.304Z,16.60
2019-05-19T10:06:45.306Z,17.30
2019-05-19T10:07:45.291Z,16.60
2019-05-19T10:08:45.275Z,15.60
2019-05-19T10:09:45.263Z,15.30
2019-05-19T10:10:45.273Z,15.90
2019-05-19T10:11:45.247Z,15.50
2019-05-19T10:12:45.234Z,16.00
2019-05-19T10:13:45.225Z,17.10
2019-05-19T10:14:45.217Z,16.40
2019-05-19T10:15:45.207Z,15.40
2019-05-19T10:16:45.224Z,14.90
2019-05-19T10:17:45.188Z,14.10
2019-05-19T10:18:45.186Z,14.60
2019-05-19T10:19:45.168Z,16.80
2019-05-19T10:20:45.164Z,15.80
2019-05-19T10:21:45.147Z,15.20
2019-05-19T10:22:45.162Z,15.90
2019-05-19T10:23:45.131Z,15.00
2019-05-19T10:24:57.840Z,15.00
2019-05-19T10:25:46.114Z,15.20
2019-05-19T10:26:45.103Z,13.50
2019-05-19T10:27:45.091Z,12.30
2019-05-19T10:28:45.100Z,13.60
2019-05-19T10:29:45.076Z,14.70
2019-05-19T10:30:45.076Z,13.80
2019-05-19T10:31:45.056Z,14.30
2019-05-19T10:32:45.045Z,13.80
2019-05-19T10:33:45.055Z,13.90
2019-05-19T10:34:45.044Z,13.20
2019-05-19T10:35:45.016Z,13.80
2019-05-19T10:36:45.006Z,14.00
2019-05-19T10:37:44.998Z,13.80
2019-05-19T10:38:44.990Z,12.70
2019-05-19T10:39:44.977Z,12.90
2019-05-19T10:40:44.989Z,12.30
2019-05-19T10:41:44.959Z,12.00
2019-05-19T10:42:44.955Z,11.70
2019-05-19T10:43:44.939Z,11.60
2019-05-19T10:44:44.930Z,12.50
2019-05-19T10:45:44.922Z,12.60
2019-05-19T10:46:44.927Z,12.50
2019-05-19T10:47:44.920Z,12.90
2019-05-19T10:48:44.896Z,13.00
2019-05-19T10:49:44.883Z,12.20
2019-05-19T10:50:44.874Z,12.30
2019-05-19T10:51:44.881Z,11.70
2019-05-19T10:52:44.953Z,12.10
2019-05-19T10:53:44.849Z,12.20
2019-05-19T10:54:44.836Z,12.70
2019-05-19T10:55:44.831Z,11.60
2019-05-19T10:56:44.817Z,12.20
2019-05-19T10:57:44.810Z,13.00
2019-05-19T10:58:44.815Z,12.10
2019-05-19T10:59:44.787Z,11.80
2019-05-19T11:00:44.837Z,11.80
2019-05-19T11:01:44.776Z,12.70
2019-05-19T11:02:44.762Z,12.80
2019-05-19T11:03:44.754Z,11.60
2019-05-19T11:04:44.760Z,12.80
2019-05-19T11:05:44.738Z,11.90
2019-05-19T11:06:44.725Z,11.60
2019-05-19T11:07:44.714Z,11.00
2019-05-19T11:08:44.713Z,11.30
2019-05-19T11:09:44.697Z,10.80
2019-05-19T11:10:44.713Z,11.10
2019-05-19T11:11:44.673Z,11.30
2019-05-19T11:12:46.956Z,10.40
2019-05-19T11:13:44.655Z,9.50
2019-05-19T11:14:44.646Z,9.40
2019-05-19T11:15:44.639Z,10.20
2019-05-19T11:16:44.648Z,10.50
2019-05-19T11:17:44.621Z,10.90
2019-05-19T11:18:44.620Z,10.60
2019-05-19T11:19:44.602Z,11.70
2019-05-19T11:20:44.590Z,10.60
2019-05-19T11:21:44.580Z,10.70
2019-05-19T11:22:44.594Z,10.30
2019-05-19T11:23:44.572Z,10.20
2019-05-19T11:24:44.560Z,11.00
2019-05-19T11:25:51.404Z,10.40
2019-05-19T11:26:45.533Z,10.00
2019-05-19T11:27:44.544Z,10.20
2019-05-19T11:28:44.537Z,10.50
2019-05-19T11:29:44.511Z,9.80
2019-05-19T11:30:44.497Z,12.20
2019-05-19T11:31:44.510Z,11.20
2019-05-19T11:32:44.482Z,10.10
2019-05-19T11:33:44.475Z,9.40
2019-05-19T11:34:44.471Z,9.40
2019-05-19T11:35:44.455Z,11.70
2019-05-19T11:36:44.444Z,10.90
2019-05-19T11:37:44.428Z,12.00
2019-05-19T11:38:44.418Z,10.90
2019-05-19T11:39:44.414Z,10.30
2019-05-19T11:40:44.423Z,11.10
2019-05-19T11:41:44.389Z,12.10
2019-05-19T11:42:46.830Z,11.40
2019-05-19T11:43:44.444Z,11.10
2019-05-19T11:44:44.368Z,10.30
2019-05-19T11:45:44.359Z,10.50
2019-05-19T11:46:44.372Z,10.00
2019-05-19T11:47:44.340Z,9.50
2019-05-19T11:48:44.327Z,10.20
2019-05-19T11:49:44.318Z,9.70
2019-05-19T11:50:44.305Z,9.70
2019-05-19T11:51:44.291Z,9.60
2019-05-19T11:52:44.301Z,10.20
2019-05-19T11:53:44.283Z,10.80
2019-05-19T11:54:44.267Z,11.10
2019-05-19T11:55:44.254Z,9.90
2019-05-19T11:56:44.243Z,11.00
2019-05-19T11:57:44.231Z,11.60
2019-05-19T11:58:44.244Z,10.80
2019-05-19T11:59:44.214Z,9.80
2019-05-19T12:00:44.204Z,9.60
2019-05-19T12:01:44.200Z,9.60
2019-05-19T12:02:44.185Z,9.40
2019-05-19T12:03:44.174Z,9.30
2019-05-19T12:04:44.184Z,9.40
2019-05-19T12:05:44.151Z,8.90
2019-05-19T12:06:44.143Z,8.10
2019-05-19T12:07:44.140Z,7.50
2019-05-19T12:08:44.124Z,6.90
2019-05-19T12:09:44.109Z,6.90
2019-05-19T12:10:44.121Z,8.00
2019-05-19T12:11:44.118Z,7.90
2019-05-19T12:12:44.084Z,7.90
2019-05-19T12:13:44.071Z,7.80
2019-05-19T12:14:44.055Z,9.10
2019-05-19T12:15:44.056Z,7.80
2019-05-19T12:16:44.055Z,8.80
2019-05-19T12:17:44.029Z,9.30
2019-05-19T12:18:44.065Z,11.10
2019-05-19T12:19:44.007Z,12.70
2019-05-19T12:20:44.005Z,13.20
2019-05-19T12:21:43.986Z,12.20
2019-05-19T12:22:44.001Z,11.40
2019-05-19T12:23:43.962Z,11.60
2019-05-19T12:24:43.957Z,9.70
2019-05-19T12:25:43.970Z,9.30
2019-05-19T12:26:43.943Z,11.30
2019-05-19T12:27:43.919Z,10.00
2019-05-19T12:28:43.926Z,10.90
2019-05-19T12:29:43.905Z,11.90
2019-05-19T12:30:43.889Z,13.50
2019-05-19T12:31:43.885Z,13.70
2019-05-19T12:32:43.866Z,15.00
2019-05-19T12:33:51.531Z,15.30
2019-05-19T12:34:44.868Z,14.60
2019-05-19T12:35:43.837Z,13.80
2019-05-19T12:36:43.824Z,12.30
2019-05-19T12:37:43.818Z,11.60
2019-05-19T12:38:43.812Z,11.80
2019-05-19T12:39:43.801Z,14.30
2019-05-19T12:40:43.807Z,14.60
2019-05-19T12:41:43.774Z,14.60
2019-05-19T12:42:43.761Z,16.00
2019-05-19T12:43:43.757Z,16.90
2019-05-19T12:44:43.741Z,16.70
2019-05-19T12:45:43.748Z,17.40
2019-05-19T12:46:43.735Z,16.60
2019-05-19T12:47:43.714Z,16.90
2019-05-19T12:48:43.718Z,17.70
2019-05-19T12:49:43.694Z,16.50
2019-05-19T12:50:43.675Z,16.20
2019-05-19T12:51:43.685Z,16.30
2019-05-19T12:52:43.678Z,16.30
2019-05-19T12:53:43.653Z,16.80